createdAt,value
2022-11-05T09:00:31.360Z,97237.53
2022-11-05T09:02:34.232Z,97234.69
2022-11-05T09:04:36.967Z,97240.13
2022-11-05T09:06:39.674Z,97238.63
2022-11-05T09:08:42.374Z,97242.59
2022-11-05T09:10:46.075Z,97246.31
2022-11-05T09:12:48.722Z,97242.50
2022-11-05T09:14:51.413Z,97253.97
2022-11-05T09:16:55.582Z,97253.19
2022-11-05T09:18:58.225Z,97257.47
2022-11-05T09:21:00.958Z,97255.25
2022-11-05T09:23:03.681Z,97259.75
2022-11-05T09:25:07.653Z,97262.84
2022-11-05T09:27:11.795Z,97259.78
2022-11-05T09:29:14.631Z,97257.53
2022-11-05T09:31:17.563Z,97263.25
2022-11-05T09:33:24.972Z,97261.84
2022-11-05T09:35:27.689Z,97258.97
2022-11-05T09:37:30.733Z,97254.88
2022-11-05T09:39:33.437Z,97261.84
2022-11-05T09:41:39.873Z,97258.81
2022-11-05T09:43:46.545Z,97261.47
2022-11-05T09:45:52.761Z,97258.59
2022-11-05T09:48:00.395Z,97263.50
2022-11-05T09:50:09.059Z,97266.75
2022-11-05T09:52:15.822Z,97267.38
2022-11-05T09:54:18.771Z,97269.66
2022-11-05T09:56:25.068Z,97277.41
2022-11-05T09:58:37.263Z,97275.38
2022-11-05T10:00:41.314Z,97278.63
2022-11-05T10:02:49.679Z,97277.41
2022-11-05T10:04:55.797Z,97278.22
2022-11-05T10:07:01.834Z,97287.66
2022-11-05T10:09:10.067Z,97274.75
2022-11-05T10:11:18.094Z,97283.75
2022-11-05T10:13:26.500Z,97281.09
2022-11-05T10:15:34.728Z,97284.56
2022-11-05T10:17:41.151Z,97275.78
2022-11-05T10:19:48.388Z,97282.72
2022-11-05T10:22:06.104Z,97281.53
2022-11-05T10:24:16.710Z,97278.66
2022-11-05T10:26:21.668Z,97281.94
2022-11-05T10:28:28.746Z,97281.09
2022-11-05T10:30:31.630Z,97282.34
2022-11-05T10:32:38.345Z,97284.19
2022-11-05T10:34:41.245Z,97286.44
2022-11-05T10:36:44.581Z,97282.97
2022-11-05T10:38:47.294Z,97280.28
2022-11-05T10:40:58.626Z,97274.97
2022-11-05T10:43:06.773Z,97276.63
2022-11-05T10:45:22.635Z,97280.91
2022-11-05T10:47:39.494Z,97272.53
2022-11-05T10:49:51.839Z,97266.19
2022-11-05T10:51:58.056Z,97258.81
2022-11-05T10:54:06.403Z,97273.75
2022-11-05T10:56:32.596Z,97273.75
2022-11-05T10:58:37.287Z,97272.75
2022-11-05T11:00:40.457Z,97269.47
2022-11-05T11:02:44.038Z,97268.03
2022-11-05T11:04:53.033Z,97256.16
2022-11-05T11:06:57.438Z,97263.09
2022-11-05T11:09:03.184Z,97267.59
2022-11-05T11:11:11.735Z,97263.94
2022-11-05T11:13:22.237Z,97253.94
2022-11-05T11:15:28.352Z,97260.88
2022-11-05T11:17:33.576Z,97263.53
2022-11-05T11:19:37.509Z,97257.59
2022-11-05T11:21:41.602Z,97260.25
2022-11-05T11:23:54.116Z,97262.72
2022-11-05T11:26:01.468Z,97258.41
2022-11-05T11:28:07.318Z,97270.88
2022-11-05T11:30:20.641Z,97264.56
2022-11-05T11:32:29.051Z,97263.13
2022-11-05T11:34:35.158Z,97263.53
2022-11-05T11:36:44.678Z,97253.69
2022-11-05T11:38:47.598Z,97256.97
2022-11-05T11:40:50.346Z,97257.41
2022-11-05T11:42:56.482Z,97254.53
2022-11-05T11:45:04.941Z,97248.19
2022-11-05T11:47:14.096Z,97247.56
2022-11-05T11:49:33.232Z,97258.22
2022-11-05T11:51:40.585Z,97254.31
2022-11-05T11:53:43.560Z,97249.00
2022-11-05T11:56:00.947Z,97258.63
2022-11-05T11:58:07.799Z,97256.97
2022-11-05T12:00:11.384Z,97256.16
2022-11-05T12:02:47.690Z,97250.84
2022-11-05T12:05:16.952Z,97254.53
2022-11-05T12:07:32.865Z,97254.53
2022-11-05T12:09:52.581Z,97236.94
2022-11-05T12:12:04.026Z,97233.88
2022-11-05T12:14:17.922Z,97233.66
2022-11-05T12:16:31.083Z,97229.38
2022-11-05T12:18:42.840Z,97233.66
2022-11-05T12:21:05.953Z,97235.31
2022-11-05T12:23:33.462Z,97241.00
2022-11-05T12:25:43.998Z,97242.47
2022-11-05T12:28:02.213Z,97245.94
2022-11-05T12:30:09.181Z,97249.84
2022-11-05T12:32:47.439Z,97244.31
2022-11-05T12:34:59.107Z,97241.44
2022-11-05T12:37:13.312Z,97237.97
2022-11-05T12:39:36.446Z,97238.56
2022-11-05T12:41:48.092Z,97236.50
2022-11-05T12:44:06.313Z,97238.16
2022-11-05T12:46:21.905Z,97236.09
2022-11-05T12:48:54.779Z,97243.25
2022-11-05T12:51:07.508Z,97240.41
2022-11-05T12:53:24.570Z,97232.44
2022-11-05T12:55:31.083Z,97229.56
2022-11-05T12:57:39.838Z,97235.50
2022-11-05T12:59:51.281Z,97234.47
2022-11-05T13:02:01.902Z,97238.97
2022-11-05T13:04:12.435Z,97231.81
2022-11-05T13:06:20.135Z,97244.50
2022-11-05T13:08:26.845Z,97237.53
2022-11-05T13:10:33.809Z,97237.34
2022-11-05T13:12:41.086Z,97225.09
2022-11-05T13:14:48.197Z,97237.75
2022-11-05T13:16:54.637Z,97236.72
2022-11-05T13:19:01.130Z,97238.19
2022-11-05T13:21:07.929Z,97226.50
2022-11-05T13:23:18.785Z,97235.50
2022-11-05T13:25:25.224Z,97232.00
2022-11-05T13:27:45.039Z,97225.03
2022-11-05T13:29:51.099Z,97224.25
2022-11-05T13:31:59.922Z,97226.28
2022-11-05T13:34:05.768Z,97231.81
2022-11-05T13:36:32.570Z,97223.03
2022-11-05T13:38:54.370Z,97222.63
2022-11-05T13:41:09.574Z,97233.28
2022-11-05T13:43:45.140Z,97227.94
2022-11-05T13:46:23.742Z,97230.78
2022-11-05T13:48:45.761Z,97235.94
2022-11-05T13:51:19.991Z,97237.75
2022-11-05T13:53:47.146Z,97226.50
2022-11-05T13:56:00.546Z,97225.69
2022-11-05T13:58:50.818Z,97235.28
2022-11-05T14:01:06.274Z,97228.34
2022-11-05T14:03:18.069Z,97233.25
2022-11-05T14:05:29.672Z,97233.25
2022-11-05T14:07:35.315Z,97220.16
2022-11-05T14:09:40.213Z,97222.44
2022-11-05T14:11:50.328Z,97215.25
2022-11-05T14:13:58.029Z,97213.81
2022-11-05T14:16:06.467Z,97207.91
2022-11-05T14:18:39.838Z,97215.06
2022-11-05T14:20:59.075Z,97208.91
2022-11-05T14:23:38.565Z,97210.34
2022-11-05T14:25:55.682Z,97202.56
2022-11-05T14:28:00.050Z,97208.09
2022-11-05T14:30:24.000Z,97212.00
2022-11-05T14:32:28.892Z,97214.03
2022-11-05T14:34:49.351Z,97222.63
2022-11-05T14:37:25.203Z,97215.28
2022-11-05T14:39:29.992Z,97207.88
2022-11-05T14:41:33.018Z,97209.09
2022-11-05T14:43:37.163Z,97206.66
2022-11-05T14:45:41.849Z,97205.47
2022-11-05T14:47:54.691Z,97211.16
2022-11-05T14:50:02.780Z,97206.66
2022-11-05T14:52:11.202Z,97211.16
2022-11-05T14:54:23.989Z,97213.63
2022-11-05T14:56:26.975Z,97215.25
2022-11-05T14:58:35.482Z,97221.38
2022-11-05T15:00:50.266Z,97220.78
2022-11-05T15:02:58.291Z,97223.84
2022-11-05T15:05:37.091Z,97231.22
2022-11-05T15:07:39.837Z,97221.41
2022-11-05T15:09:45.589Z,97220.75
2022-11-05T15:12:09.358Z,97223.03
2022-11-05T15:14:22.632Z,97215.88
2022-11-05T15:16:33.857Z,97218.31
2022-11-05T15:18:44.212Z,97212.78
2022-11-05T15:20:49.464Z,97215.44
2022-11-05T15:22:59.160Z,97217.72
2022-11-05T15:25:02.598Z,97218.53
2022-11-05T15:27:12.741Z,97218.53
2022-11-05T15:29:18.784Z,97214.25
2022-11-05T15:31:30.170Z,97216.09
2022-11-05T15:33:33.719Z,97214.44
2022-11-05T15:35:40.125Z,97207.06
2022-11-05T15:37:53.389Z,97205.44
2022-11-05T15:39:58.771Z,97212.81
2022-11-05T15:42:05.766Z,97198.69
2022-11-05T15:44:25.042Z,97205.44
2022-11-05T15:46:29.813Z,97215.84
2022-11-05T15:48:33.153Z,97213.59
2022-11-05T15:50:36.130Z,97215.66
2022-11-05T15:52:42.249Z,97223.41
2022-11-05T15:54:45.763Z,97210.94
2022-11-05T15:56:52.847Z,97219.31
2022-11-05T15:58:59.884Z,97226.31
2022-11-05T16:01:02.633Z,97222.19
2022-11-05T16:03:13.809Z,97223.22
2022-11-05T16:05:16.978Z,97219.34
2022-11-05T16:07:20.386Z,97219.75
2022-11-05T16:09:25.846Z,97211.13
2022-11-05T16:11:28.694Z,97210.75
2022-11-05T16:13:36.571Z,97210.97
2022-11-05T16:15:39.338Z,97211.13
2022-11-05T16:17:54.478Z,97208.88
2022-11-05T16:19:58.837Z,97202.75
2022-11-05T16:22:03.707Z,97199.28
2022-11-05T16:24:07.041Z,97198.25
2022-11-05T16:28:55.071Z,97200.50
2022-11-05T16:31:00.101Z,97202.16
2022-11-05T16:33:08.843Z,97200.09
2022-11-05T16:35:21.341Z,97204.59
2022-11-05T16:37:25.998Z,97199.06
2022-11-05T16:39:28.750Z,97190.31
2022-11-05T16:41:31.466Z,97199.28
2022-11-05T16:43:34.462Z,97208.88
2022-11-05T16:45:41.472Z,97212.38
2022-11-05T16:47:45.606Z,97220.53
2022-11-05T16:49:49.123Z,97223.81
2022-11-05T16:51:53.718Z,97231.19
2022-11-05T16:53:56.443Z,97224.25
2022-11-05T16:55:59.171Z,97225.06
2022-11-05T16:58:01.978Z,97224.63
2022-11-05T17:00:06.712Z,97231.56
2022-11-05T17:02:11.620Z,97237.09
2022-11-05T17:04:14.845Z,97242.19
2022-11-05T17:06:18.831Z,97247.50
2022-11-05T17:08:22.891Z,97243.00
2022-11-05T17:10:27.222Z,97251.19
2022-11-05T17:12:30.128Z,97250.56
2022-11-05T17:14:32.977Z,97248.34
2022-11-05T17:16:38.550Z,97249.13
2022-11-05T17:18:42.566Z,97236.88
2022-11-05T17:20:46.880Z,97241.75
2022-11-05T17:22:49.599Z,97237.88
2022-11-05T17:24:53.792Z,97248.31
2022-11-05T17:26:56.509Z,97243.59
2022-11-05T17:28:59.326Z,97234.44
2022-11-05T17:31:03.355Z,97240.38
2022-11-05T17:33:06.567Z,97238.53
2022-11-05T17:35:12.155Z,97243.03
2022-11-05T17:37:14.965Z,97237.72
2022-11-05T17:39:17.693Z,97245.06
2022-11-05T17:41:23.254Z,97250.38
2022-11-05T17:43:26.165Z,97247.31
2022-11-05T17:45:28.936Z,97244.66
2022-11-05T17:47:31.731Z,97242.59
2022-11-05T17:49:34.448Z,97241.59
2022-11-05T17:51:37.125Z,97251.41
2022-11-05T17:53:40.302Z,97259.38
2022-11-05T17:55:43.883Z,97262.84
2022-11-05T17:57:49.806Z,97268.16
2022-11-05T17:59:52.510Z,97256.50
2022-11-05T18:01:55.649Z,97258.13
2022-11-05T18:04:02.454Z,97252.00
2022-11-05T18:06:10.126Z,97253.66
2022-11-05T18:08:13.246Z,97253.66
2022-11-05T18:10:16.620Z,97246.69
2022-11-05T18:12:19.269Z,97240.56
2022-11-05T18:14:24.225Z,97241.38
2022-11-05T18:16:27.077Z,97229.94
2022-11-05T18:18:29.787Z,97230.75
2022-11-05T18:20:32.509Z,97225.44
2022-11-05T18:22:35.612Z,97221.75
2022-11-05T18:24:38.465Z,97233.03
2022-11-05T18:26:41.191Z,97229.56
2022-11-05T18:28:44.570Z,97232.38
2022-11-05T18:30:48.851Z,97245.88
2022-11-05T18:32:52.099Z,97239.13
2022-11-05T18:45:57.625Z,97246.94
2022-11-05T18:48:01.065Z,97241.19
2022-11-05T18:50:04.801Z,97247.53
2022-11-05T18:52:07.501Z,97257.16
2022-11-05T18:54:11.176Z,97260.00
2022-11-05T18:56:16.270Z,97255.91
2022-11-05T18:58:18.985Z,97264.91
2022-11-05T19:00:21.888Z,97254.47
2022-11-05T19:02:26.423Z,97250.38
2022-11-05T19:04:30.498Z,97250.56
2022-11-05T19:06:34.143Z,97247.09
2022-11-05T19:08:37.049Z,97237.72
2022-11-05T19:10:40.981Z,97237.09
2022-11-05T19:12:43.675Z,97241.59
2022-11-05T19:14:46.470Z,97243.59
2022-11-05T19:16:49.250Z,97243.00
2022-11-05T19:18:53.768Z,97269.56
2022-11-05T19:20:56.784Z,97266.09
2022-11-05T19:22:59.457Z,97271.59
2022-11-05T19:25:02.131Z,97260.75
2022-11-05T19:27:05.044Z,97260.56
2022-11-05T19:29:07.817Z,97263.59
2022-11-05T19:31:14.138Z,97258.50
2022-11-05T19:33:16.999Z,97254.41
2022-11-05T19:35:23.659Z,97264.22
2022-11-05T19:37:26.546Z,97266.88
2022-11-05T19:39:29.227Z,97268.09
2022-11-05T19:41:32.297Z,97264.63
2022-11-05T19:43:35.761Z,97260.31
2022-11-05T19:45:44.687Z,97257.06
2022-11-05T19:47:47.801Z,97259.72
2022-11-05T19:49:50.578Z,97255.22
2022-11-05T19:51:54.830Z,97259.72
2022-11-05T19:53:59.761Z,97286.44
2022-11-05T19:56:06.543Z,97277.03
2022-11-05T19:58:09.653Z,97285.22
2022-11-05T20:00:13.865Z,97276.63
2022-11-05T20:02:16.807Z,97277.44
2022-11-05T20:04:19.602Z,97272.34
2022-11-05T20:06:25.644Z,97275.81
2022-11-05T20:08:29.818Z,97275.00
2022-11-05T20:10:32.568Z,97273.13
2022-11-05T20:12:36.650Z,97268.63
2022-11-05T20:14:39.304Z,97268.00
2022-11-05T20:16:42.690Z,97264.53
2022-11-05T20:18:45.367Z,97263.50
2022-11-05T20:20:48.439Z,97261.69
2022-11-05T20:22:53.278Z,97264.53
2022-11-05T20:24:57.313Z,97262.50
2022-11-05T20:27:00.274Z,97263.72
2022-11-05T20:29:03.183Z,97254.28
2022-11-05T20:31:07.928Z,97257.16
2022-11-05T20:33:10.710Z,97259.59
2022-11-05T20:35:13.585Z,97255.75
2022-11-05T20:37:16.229Z,97250.44
2022-11-05T20:39:19.273Z,97261.88
2022-11-05T20:41:24.214Z,97259.22
2022-11-05T20:43:30.301Z,97263.72
2022-11-05T20:45:33.750Z,97268.22
2022-11-05T20:47:37.434Z,97271.03
2022-11-05T20:49:40.121Z,97271.44
2022-11-05T20:51:43.329Z,97273.69
2022-11-05T20:53:46.939Z,97274.91
2022-11-05T20:55:50.001Z,97272.25
2022-11-05T20:57:54.078Z,97278.38
2022-11-05T20:59:56.754Z,97284.50
2022-11-05T21:01:59.515Z,97282.06
2022-11-05T21:04:02.984Z,97284.50
2022-11-05T21:06:06.381Z,97276.09
2022-11-05T21:08:09.268Z,97279.56
2022-11-05T21:10:12.185Z,97274.25
2022-11-05T21:12:14.832Z,97274.25
2022-11-05T21:14:18.918Z,97274.47
2022-11-05T21:16:21.949Z,97269.34
2022-11-05T21:18:26.497Z,97273.84
2022-11-05T21:20:29.322Z,97276.50
2022-11-05T21:22:32.203Z,97282.63
2022-11-05T21:24:35.463Z,97284.47
2022-11-05T21:26:38.133Z,97283.66
2022-11-05T21:28:42.513Z,97295.47
2022-11-05T21:30:49.013Z,97295.47
2022-11-05T21:32:52.953Z,97292.00
2022-11-05T21:34:55.624Z,97292.81
2022-11-05T21:36:58.301Z,97292.22
2022-11-05T21:39:00.974Z,97297.50
2022-11-05T21:41:05.150Z,97300.38
2022-11-05T21:43:08.536Z,97311.00
2022-11-05T21:45:11.975Z,97316.09
2022-11-05T21:47:16.273Z,97311.81
2022-11-05T21:49:19.136Z,97303.84
2022-11-05T21:51:39.523Z,97308.13
2022-11-05T21:54:05.346Z,97300.38
2022-11-05T21:56:26.963Z,97294.22
2022-11-05T21:58:47.221Z,97307.88
2022-11-05T22:00:50.209Z,97314.22
2022-11-05T22:02:54.322Z,97325.66
2022-11-05T22:05:00.035Z,97322.78
2022-11-05T22:07:04.400Z,97326.47
2022-11-05T22:09:07.212Z,97324.81
2022-11-05T22:11:10.076Z,97322.16
2022-11-05T22:13:13.753Z,97316.25
2022-11-05T22:15:16.414Z,97325.22
2022-11-05T22:17:20.037Z,97325.22
2022-11-05T22:19:24.858Z,97319.91
2022-11-05T22:21:27.613Z,97319.50
